Time;durP1;ratioP1;P1;durP2;ratioP2;P2;SDS_P1;SDS_P2;PMS_P1;PMS_P2;Temp;Humidity;BMP_temperature;BMP_pressure;BME280_temperature;BME280_humidity;BME280_pressure;Samples;Min_cycle;Max_cycle;Signal;HPM_P1;HPM_P2
2022/02/20 00:01:05;;;;;;;4.50;1.80;;;4.90;94.60;;;;;;5107003;28;20231;-72
2022/02/20 00:03:31;;;;;;;2.50;1.50;;;4.90;94.70;;;;;;5105623;28;20222;-71
2022/02/20 00:05:58;;;;;;;2.63;1.52;;;4.90;94.80;;;;;;5106719;28;20226;-71
2022/02/20 00:08:25;;;;;;;2.50;1.80;;;4.80;95.20;;;;;;5106342;28;20207;-71
2022/02/20 00:10:53;;;;;;;6.13;1.70;;;4.70;95.60;;;;;;5106307;28;20219;-71
2022/02/20 00:13:20;;;;;;;2.38;1.45;;;4.70;96.10;;;;;;5107266;28;20211;-71
2022/02/20 00:15:47;;;;;;;3.65;1.80;;;4.60;96.20;;;;;;5107783;28;20853;-71
2022/02/20 00:18:13;;;;;;;4.25;1.58;;;4.60;96.50;;;;;;5110236;28;20199;-71
2022/02/20 00:20:42;;;;;;;6.20;2.10;;;4.60;97.00;;;;;;5111613;28;20199;-71
2022/02/20 00:23:09;;;;;;;3.22;1.60;;;4.50;97.40;;;;;;5110697;28;20198;-72
2022/02/20 00:25:37;;;;;;;6.22;2.75;;;4.40;97.80;;;;;;5110190;28;20206;-71
2022/02/20 00:28:06;;;;;;;4.55;1.85;;;4.40;98.30;;;;;;5110727;28;20302;-71
2022/02/20 00:30:33;;;;;;;5.15;1.70;;;4.30;98.60;;;;;;5110727;28;20215;-71
2022/02/20 00:33:01;;;;;;;4.40;1.98;;;4.30;98.70;;;;;;5109433;28;20210;-71
2022/02/20 00:35:28;;;;;;;2.85;1.90;;;4.20;98.90;;;;;;5110217;28;20694;-71
2022/02/20 00:37:55;;;;;;;4.28;1.80;;;4.20;99.10;;;;;;5110390;28;20318;-71
2022/02/20 00:40:21;;;;;;;3.83;2.03;;;4.10;99.30;;;;;;5109893;28;20674;-71
2022/02/20 00:42:48;;;;;;;5.90;1.88;;;4.10;99.50;;;;;;5110631;28;20587;-71
2022/02/20 00:45:16;;;;;;;3.33;1.40;;;4.10;99.70;;;;;;5110275;28;20214;-71
2022/02/20 00:47:44;;;;;;;2.63;1.77;;;4.00;99.80;;;;;;5109966;28;20571;-71
2022/02/20 00:50:11;;;;;;;4.63;2.20;;;4.00;99.90;;;;;;5110562;28;20449;-71
2022/02/20 00:52:39;;;;;;;1.67;1.50;;;4.00;99.90;;;;;;5109646;28;20235;-71
2022/02/20 00:55:06;;;;;;;4.78;1.80;;;4.00;99.90;;;;;;5109814;28;20202;-71
2022/02/20 00:57:33;;;;;;;8.50;2.05;;;4.00;99.90;;;;;;5109843;28;20219;-72
2022/02/20 01:00:00;;;;;;;7.13;3.47;;;4.00;99.90;;;;;;5111034;28;20244;-71
2022/02/20 01:02:28;;;;;;;7.32;2.00;;;4.00;99.90;;;;;;5109916;28;20206;-71
2022/02/20 01:04:55;;;;;;;9.20;2.15;;;4.00;99.90;;;;;;5111111;28;20582;-72
2022/02/20 01:07:22;;;;;;;4.70;2.10;;;3.90;99.90;;;;;;5110746;28;20230;-71
2022/02/20 01:09:49;;;;;;;6.25;2.15;;;4.00;99.90;;;;;;5109632;28;20202;-71
2022/02/20 01:12:16;;;;;;;1.90;1.52;;;3.90;99.90;;;;;;5111659;28;20229;-71
2022/02/20 01:14:43;;;;;;;5.82;1.75;;;3.90;99.90;;;;;;5111074;28;20207;-71
2022/02/20 01:17:10;;;;;;;7.18;1.88;;;3.90;99.90;;;;;;5111914;28;20258;-71
2022/02/20 01:19:39;;;;;;;6.07;1.40;;;3.90;99.90;;;;;;5111775;28;20195;-71
2022/02/20 01:22:06;;;;;;;6.47;1.67;;;3.80;99.90;;;;;;5113223;28;20248;-71
2022/02/20 01:24:33;;;;;;;2.67;1.60;;;3.90;99.90;;;;;;5115606;28;20213;-71
2022/02/20 01:27:01;;;;;;;3.63;1.83;;;3.90;99.90;;;;;;5116560;28;20287;-71
2022/02/20 01:29:27;;;;;;;2.00;1.30;;;3.90;99.90;;;;;;5114626;28;20210;-70
2022/02/20 01:31:55;;;;;;;4.55;1.60;;;3.90;99.90;;;;;;5115338;28;20218;-71
2022/02/20 01:34:22;;;;;;;2.10;1.45;;;3.90;99.90;;;;;;5114363;28;20256;-71
2022/02/20 01:36:50;;;;;;;3.63;1.85;;;3.90;99.90;;;;;;5115806;28;20245;-71
2022/02/20 01:39:17;;;;;;;5.40;1.70;;;3.90;99.90;;;;;;5113125;28;20203;-72
2022/02/20 01:41:43;;;;;;;6.97;2.55;;;3.90;99.90;;;;;;5112124;28;20248;-71
2022/02/20 01:44:10;;;;;;;4.50;1.83;;;3.90;99.90;;;;;;5113528;28;20211;-71
2022/02/20 01:46:37;;;;;;;3.58;1.73;;;3.90;99.90;;;;;;5111008;28;20218;-71
2022/02/20 01:49:04;;;;;;;3.15;1.95;;;3.90;99.90;;;;;;5111378;28;20206;-71
2022/02/20 01:51:30;;;;;;;4.05;1.88;;;3.90;99.90;;;;;;5111158;28;20753;-71
2022/02/20 01:53:58;;;;;;;3.83;1.42;;;3.90;99.90;;;;;;5110336;28;20211;-71
2022/02/20 01:56:25;;;;;;;4.50;1.52;;;3.80;99.90;;;;;;5110149;28;20226;-71
2022/02/20 01:58:52;;;;;;;5.22;1.50;;;3.90;99.90;;;;;;5111463;28;20202;-71
2022/02/20 02:01:19;;;;;;;3.75;1.60;;;3.90;99.90;;;;;;5110244;28;20199;-71
2022/02/20 02:03:45;;;;;;;4.43;1.60;;;4.00;99.90;;;;;;5109277;28;20206;-72
2022/02/20 02:06:12;;;;;;;3.75;1.52;;;4.00;99.90;;;;;;5109766;28;20223;-71
2022/02/20 02:08:40;;;;;;;3.33;1.35;;;4.00;99.90;;;;;;5109910;28;20946;-71
2022/02/20 02:11:08;;;;;;;5.18;1.70;;;4.00;99.90;;;;;;5109636;28;20214;-71
2022/02/20 02:13:35;;;;;;;6.13;1.85;;;4.10;99.90;;;;;;5109755;28;20210;-70
2022/02/20 02:16:02;;;;;;;5.72;1.88;;;4.10;99.90;;;;;;5110660;28;20246;-71
2022/02/20 02:18:29;;;;;;;3.90;1.90;;;4.10;99.90;;;;;;5110714;28;20966;-72
2022/02/20 02:20:55;;;;;;;7.35;2.00;;;4.10;99.90;;;;;;5109897;28;20214;-71
2022/02/20 02:23:23;;;;;;;3.75;1.70;;;4.10;99.90;;;;;;5109076;28;20214;-71
2022/02/20 02:25:52;;;;;;;3.10;1.80;;;4.20;99.90;;;;;;5112180;28;20207;-71
2022/02/20 02:28:19;;;;;;;3.47;1.95;;;4.20;99.90;;;;;;5112475;28;20228;-72
2022/02/20 02:30:47;;;;;;;4.70;1.65;;;4.20;99.90;;;;;;5112662;28;20203;-71
2022/02/20 02:33:24;;;;;;;1.90;1.30;;;4.20;99.90;;;;;;5111997;28;20633;-71
2022/02/20 02:35:51;;;;;;;4.07;1.58;;;4.20;99.90;;;;;;5112472;28;20219;-72
2022/02/20 02:38:20;;;;;;;3.40;1.30;;;4.30;99.90;;;;;;5112476;28;20210;-71
2022/02/20 02:40:48;;;;;;;3.00;1.60;;;4.20;99.90;;;;;;5112081;28;20199;-71
2022/02/20 02:43:15;;;;;;;3.40;1.20;;;4.30;99.90;;;;;;5111652;28;20195;-71
2022/02/20 02:45:42;;;;;;;2.85;1.80;;;4.30;99.90;;;;;;5112170;28;20210;-72
2022/02/20 02:48:08;;;;;;;2.53;1.40;;;4.30;99.90;;;;;;5112146;28;20637;-71
2022/02/20 02:50:35;;;;;;;4.15;1.55;;;4.40;99.90;;;;;;5112014;28;20203;-71
2022/02/20 02:53:02;;;;;;;2.05;1.20;;;4.30;99.90;;;;;;5111117;28;20215;-71
2022/02/20 02:55:29;;;;;;;4.53;1.52;;;4.30;99.90;;;;;;5111783;28;20207;-71
2022/02/20 02:57:57;;;;;;;4.20;1.60;;;4.30;99.90;;;;;;5112114;28;20230;-72
2022/02/20 03:00:23;;;;;;;1.98;1.35;;;4.30;99.90;;;;;;5111777;28;20206;-71
2022/02/20 03:02:50;;;;;;;3.13;1.42;;;4.40;99.90;;;;;;5111377;28;20712;-71
2022/02/20 03:05:17;;;;;;;1.65;1.30;;;4.40;99.90;;;;;;5112032;28;20206;-71
2022/02/20 03:07:44;;;;;;;2.63;1.42;;;4.40;99.90;;;;;;5111818;28;20223;-72
2022/02/20 03:10:11;;;;;;;1.77;1.50;;;4.40;99.90;;;;;;5111801;28;20730;-72
2022/02/20 03:12:37;;;;;;;5.50;1.30;;;4.40;99.90;;;;;;5111155;28;20686;-72
2022/02/20 03:15:07;;;;;;;3.97;2.13;;;4.50;99.90;;;;;;5111810;28;20195;-71
2022/02/20 03:17:34;;;;;;;1.60;1.20;;;4.50;99.90;;;;;;5111535;28;20226;-71
2022/02/20 03:20:01;;;;;;;2.88;1.25;;;4.50;99.90;;;;;;5111653;28;20245;-71
2022/02/20 03:22:28;;;;;;;1.90;1.17;;;4.50;99.90;;;;;;5110439;28;20195;-71
2022/02/20 03:24:54;;;;;;;6.03;1.30;;;4.50;99.90;;;;;;5109280;28;20226;-71
2022/02/20 03:27:21;;;;;;;3.50;1.30;;;4.60;99.90;;;;;;5110648;28;20219;-71
2022/02/20 03:29:48;;;;;;;3.05;1.42;;;4.60;99.90;;;;;;5111599;28;20198;-72
2022/02/20 03:32:16;;;;;;;4.32;1.55;;;4.50;99.90;;;;;;5110549;28;20271;-72
2022/02/20 03:34:42;;;;;;;2.05;1.63;;;4.50;99.90;;;;;;5111475;28;20206;-72
2022/02/20 03:37:09;;;;;;;2.05;1.13;;;4.50;99.90;;;;;;5110967;28;20219;-71
2022/02/20 03:39:36;;;;;;;3.30;1.20;;;4.50;99.90;;;;;;5111615;28;20210;-71
2022/02/20 03:42:03;;;;;;;3.63;1.70;;;4.50;99.90;;;;;;5111332;28;20719;-71
2022/02/20 03:44:29;;;;;;;6.07;2.45;;;4.50;99.90;;;;;;5111599;28;20206;-71
2022/02/20 03:49:35;;;;;;;1.98;1.30;;;4.60;99.90;;;;;;5113539;28;20685;-71
2022/02/20 03:52:01;;;;;;;1.73;1.30;;;4.50;99.90;;;;;;5116458;28;20219;-70
2022/02/20 03:54:28;;;;;;;2.25;1.10;;;4.60;99.90;;;;;;5116669;28;20293;-70
2022/02/20 03:56:55;;;;;;;2.35;1.20;;;4.60;99.90;;;;;;5105279;28;20638;-69
2022/02/20 03:59:22;;;;;;;1.38;1.10;;;4.70;99.90;;;;;;5095613;28;20199;-70
2022/02/20 04:01:48;;;;;;;2.65;1.42;;;4.70;99.90;;;;;;5095551;28;20682;-69
2022/02/20 04:04:15;;;;;;;1.95;1.38;;;4.70;99.90;;;;;;5093113;28;20196;-69
2022/02/20 04:06:43;;;;;;;2.00;1.02;;;4.70;99.90;;;;;;5093727;28;20219;-69
2022/02/20 04:09:12;;;;;;;1.55;1.15;;;4.70;99.90;;;;;;5097374;28;20200;-70
2022/02/20 04:11:38;;;;;;;1.65;1.20;;;4.60;99.90;;;;;;5097319;28;20203;-69
2022/02/20 04:14:05;;;;;;;1.90;1.00;;;4.60;99.90;;;;;;5095313;28;20203;-70
2022/02/20 04:16:32;;;;;;;2.13;1.10;;;4.60;99.90;;;;;;5096189;28;20231;-70
2022/02/20 04:18:59;;;;;;;5.05;1.63;;;4.60;99.90;;;;;;5095338;28;20199;-69
2022/02/20 04:21:25;;;;;;;6.47;1.35;;;4.60;99.90;;;;;;5094086;28;20210;-69
2022/02/20 04:23:54;;;;;;;1.65;0.98;;;4.50;99.90;;;;;;5093991;28;20663;-70
2022/02/20 04:26:21;;;;;;;1.40;0.93;;;4.60;99.90;;;;;;5093760;28;20269;-70
2022/02/20 04:28:48;;;;;;;1.23;0.90;;;4.50;99.90;;;;;;5093531;28;20210;-69
2022/02/20 04:31:17;;;;;;;4.28;1.60;;;4.50;99.90;;;;;;5092278;28;20206;-69
2022/02/20 04:33:45;;;;;;;1.45;1.02;;;4.50;99.90;;;;;;5092064;28;20231;-69
2022/02/20 04:36:12;;;;;;;0.90;0.80;;;4.50;99.90;;;;;;5093210;28;20220;-69
2022/02/20 04:38:38;;;;;;;1.63;1.02;;;4.40;99.90;;;;;;5093839;28;20607;-70
2022/02/20 04:41:07;;;;;;;1.85;1.02;;;4.30;99.90;;;;;;5093442;28;20223;-70
2022/02/20 04:43:34;;;;;;;1.35;0.90;;;4.30;99.90;;;;;;5092409;28;20207;-70
2022/02/20 04:46:00;;;;;;;3.00;1.30;;;4.30;99.90;;;;;;5092903;28;20242;-70
2022/02/20 04:48:27;;;;;;;1.10;1.00;;;4.30;99.90;;;;;;5092940;28;20212;-70
2022/02/20 04:50:54;;;;;;;1.58;1.08;;;4.30;99.90;;;;;;5094422;28;20200;-70
2022/02/20 04:53:21;;;;;;;3.33;1.42;;;4.20;99.90;;;;;;5091486;28;20726;-70
2022/02/20 04:55:47;;;;;;;2.47;1.27;;;4.20;99.90;;;;;;5092677;28;20667;-69
2022/02/20 04:58:16;;;;;;;4.38;1.20;;;4.20;99.90;;;;;;5092671;28;20591;-69
2022/02/20 05:00:42;;;;;;;1.10;0.90;;;4.20;99.90;;;;;;5093439;28;20203;-70
2022/02/20 05:03:09;;;;;;;3.05;1.00;;;4.30;99.90;;;;;;5093216;28;20687;-70
2022/02/20 05:05:37;;;;;;;3.88;1.00;;;4.30;99.90;;;;;;5095907;28;20206;-69
2022/02/20 05:08:05;;;;;;;1.00;0.90;;;4.30;99.90;;;;;;5096164;28;20202;-69
2022/02/20 05:10:32;;;;;;;1.02;0.90;;;4.30;99.90;;;;;;5096552;28;20234;-69
2022/02/20 05:12:58;;;;;;;1.27;0.93;;;4.30;99.90;;;;;;5094604;28;20730;-69
2022/02/20 05:15:26;;;;;;;2.85;1.10;;;4.30;99.90;;;;;;5095951;28;20211;-69
2022/02/20 05:17:53;;;;;;;1.48;1.23;;;4.20;99.90;;;;;;5096004;28;20227;-69
2022/02/20 05:20:20;;;;;;;1.10;0.98;;;4.20;99.90;;;;;;5106650;28;20199;-70
2022/02/20 05:22:47;;;;;;;3.38;1.63;;;4.20;99.90;;;;;;5113481;28;20195;-70
2022/02/20 05:25:14;;;;;;;2.33;1.13;;;4.10;99.90;;;;;;5112928;28;20207;-69
2022/02/20 05:27:42;;;;;;;1.10;1.00;;;4.10;99.90;;;;;;5114941;28;20225;-69
2022/02/20 05:30:10;;;;;;;1.25;0.90;;;4.20;99.90;;;;;;5116140;28;20701;-69
2022/02/20 05:32:38;;;;;;;2.25;1.10;;;4.20;99.90;;;;;;5115339;28;20670;-70
2022/02/20 05:35:07;;;;;;;4.38;1.25;;;4.20;99.90;;;;;;5115889;28;20195;-70
2022/02/20 05:37:40;;;;;;;1.65;1.30;;;4.20;99.90;;;;;;5115555;28;20565;-69
2022/02/20 05:40:09;;;;;;;1.55;1.05;;;4.20;99.90;;;;;;5118010;28;20226;-70
2022/02/20 05:42:35;;;;;;;4.70;1.20;;;4.10;99.90;;;;;;5117190;28;20203;-71
2022/02/20 05:45:02;;;;;;;1.30;1.05;;;4.20;99.90;;;;;;5116677;28;20199;-70
2022/02/20 05:47:29;;;;;;;1.73;1.00;;;4.20;99.90;;;;;;5115026;28;20253;-69
2022/02/20 05:49:57;;;;;;;1.48;1.00;;;4.20;99.90;;;;;;5115973;28;20199;-70
2022/02/20 05:52:24;;;;;;;1.13;0.98;;;4.30;99.90;;;;;;5115176;28;20218;-69
2022/02/20 05:54:50;;;;;;;4.95;1.30;;;4.20;99.90;;;;;;5115025;28;20598;-70
2022/02/20 05:57:17;;;;;;;1.88;0.80;;;4.20;99.90;;;;;;5116405;28;20930;-71
2022/02/20 05:59:44;;;;;;;4.90;1.48;;;4.20;99.90;;;;;;5120424;28;20224;-69
2022/02/20 06:02:11;;;;;;;2.85;1.38;;;4.20;99.90;;;;;;5119837;28;20577;-70
2022/02/20 06:04:38;;;;;;;1.70;1.00;;;4.20;99.90;;;;;;5119590;28;20235;-69
2022/02/20 06:07:06;;;;;;;1.40;1.27;;;4.20;99.90;;;;;;5119321;28;20231;-70
2022/02/20 06:09:33;;;;;;;1.20;0.93;;;4.20;99.90;;;;;;5118449;28;20828;-70
2022/02/20 06:12:00;;;;;;;2.00;1.00;;;4.20;99.90;;;;;;5118311;28;20195;-70
2022/02/20 06:14:27;;;;;;;2.25;0.95;;;4.20;99.90;;;;;;5116677;28;20223;-69
2022/02/20 06:16:53;;;;;;;1.00;0.80;;;4.20;99.90;;;;;;5118741;28;20214;-70
2022/02/20 06:19:20;;;;;;;1.40;0.80;;;4.30;99.90;;;;;;5116522;28;20210;-69
2022/02/20 06:21:47;;;;;;;1.95;0.95;;;4.20;99.90;;;;;;5115719;28;20206;-70
2022/02/20 06:24:15;;;;;;;2.10;1.00;;;4.30;99.90;;;;;;5115343;28;20199;-69
2022/02/20 06:26:42;;;;;;;2.65;1.58;;;4.40;99.90;;;;;;5115942;28;20219;-69
2022/02/20 06:29:08;;;;;;;1.00;0.80;;;4.40;99.90;;;;;;5116164;28;20199;-70
2022/02/20 06:31:35;;;;;;;2.65;1.08;;;4.50;99.90;;;;;;5115792;28;20203;-70
2022/02/20 06:34:02;;;;;;;1.00;0.90;;;4.50;99.90;;;;;;5114304;28;20717;-69
2022/02/20 06:36:29;;;;;;;2.00;1.05;;;4.50;99.90;;;;;;5115757;28;20229;-70
2022/02/20 06:38:56;;;;;;;1.23;1.05;;;4.60;99.90;;;;;;5115484;28;20203;-70
2022/02/20 06:41:24;;;;;;;1.42;0.90;;;4.50;99.90;;;;;;5115345;28;20546;-70
2022/02/20 06:43:51;;;;;;;1.45;1.00;;;4.50;99.90;;;;;;5114397;28;20575;-70
2022/02/20 06:46:17;;;;;;;1.10;0.90;;;4.50;99.90;;;;;;5114555;28;20247;-70
2022/02/20 06:48:44;;;;;;;1.00;0.80;;;4.60;99.90;;;;;;5115041;28;20669;-71
2022/02/20 06:51:11;;;;;;;1.73;1.00;;;4.60;99.90;;;;;;5114504;28;20199;-69
2022/02/20 06:53:37;;;;;;;1.20;1.00;;;4.60;99.90;;;;;;5120745;28;20690;-69
2022/02/20 06:56:05;;;;;;;1.83;1.33;;;4.60;99.90;;;;;;5117497;28;20219;-70
2022/02/20 06:58:33;;;;;;;1.20;1.08;;;4.60;99.90;;;;;;5116315;28;20206;-70
2022/02/20 07:00:59;;;;;;;1.35;1.00;;;4.60;99.90;;;;;;5116370;28;20207;-70
2022/02/20 07:03:26;;;;;;;1.90;1.02;;;4.70;99.90;;;;;;5117345;28;20210;-71
2022/02/20 07:05:53;;;;;;;0.90;0.80;;;4.70;99.90;;;;;;5118792;28;20217;-70
2022/02/20 07:08:19;;;;;;;1.58;0.80;;;4.70;99.90;;;;;;5116896;28;20210;-70
2022/02/20 07:10:46;;;;;;;2.13;0.85;;;4.70;99.90;;;;;;5117373;28;20199;-70
2022/02/20 07:13:13;;;;;;;1.52;0.88;;;4.70;99.90;;;;;;5116846;28;20623;-72
2022/02/20 07:15:41;;;;;;;0.80;0.77;;;4.70;99.90;;;;;;5117230;28;20210;-72
2022/02/20 07:18:08;;;;;;;0.80;0.70;;;4.70;99.90;;;;;;5117153;28;20666;-71
2022/02/20 07:20:34;;;;;;;1.88;1.00;;;4.70;99.90;;;;;;5116350;28;20215;-71
2022/02/20 07:23:01;;;;;;;1.65;0.98;;;4.80;99.90;;;;;;5107354;28;20206;-72
2022/02/20 07:25:28;;;;;;;1.23;0.82;;;4.80;99.90;;;;;;5105661;28;20194;-70
2022/02/20 07:27:55;;;;;;;2.28;1.00;;;4.80;99.90;;;;;;5104586;28;20590;-72
2022/02/20 07:30:27;;;;;;;1.48;0.80;;;4.80;99.90;;;;;;5104326;28;20190;-70
2022/02/20 07:32:56;;;;;;;4.15;1.10;;;4.80;99.90;;;;;;5093169;28;20246;-71
2022/02/20 07:35:22;;;;;;;1.08;0.93;;;4.90;99.90;;;;;;5100330;28;20200;-70
2022/02/20 07:37:49;;;;;;;1.00;0.75;;;4.90;99.90;;;;;;5101823;28;20222;-70
2022/02/20 07:40:16;;;;;;;1.20;0.85;;;4.90;99.90;;;;;;5101874;28;20568;-70
2022/02/20 07:42:43;;;;;;;1.30;1.00;;;4.90;99.90;;;;;;5093965;28;20231;-70
2022/02/20 07:45:10;;;;;;;1.20;1.10;;;4.90;99.90;;;;;;5091749;28;20207;-71
2022/02/20 07:47:49;;;;;;;1.55;0.90;;;5.00;99.90;;;;;;5094170;28;20267;-71
2022/02/20 07:50:17;;;;;;;1.58;1.38;;;5.10;99.90;;;;;;5094293;28;20655;-71
2022/02/20 07:52:44;;;;;;;1.42;1.05;;;5.10;99.90;;;;;;5093820;28;20202;-70
2022/02/20 07:55:11;;;;;;;0.90;0.80;;;5.10;99.90;;;;;;5093222;28;20631;-71
2022/02/20 07:57:38;;;;;;;1.10;0.80;;;5.20;99.90;;;;;;5093537;28;20219;-71
2022/02/20 08:00:08;;;;;;;1.55;0.90;;;5.30;99.90;;;;;;5092811;28;20208;-70
2022/02/20 08:05:11;;;;;;;2.58;1.00;;;5.50;99.90;;;;;;5095235;22;20238;-91
2022/02/20 08:07:39;;;;;;;1.75;0.98;;;5.50;99.90;;;;;;5096480;28;20212;-91
2022/02/20 08:10:07;;;;;;;1.80;1.15;;;5.60;99.90;;;;;;5097403;28;20211;-92
2022/02/20 08:12:34;;;;;;;3.55;1.10;;;5.70;99.90;;;;;;5097480;28;20266;-89
2022/02/20 08:15:01;;;;;;;1.45;1.00;;;5.90;99.90;;;;;;5089052;28;20228;-89
2022/02/20 08:17:28;;;;;;;1.02;0.93;;;6.00;99.90;;;;;;5093580;28;20215;-89
2022/02/20 08:19:55;;;;;;;2.00;0.95;;;6.10;99.90;;;;;;5091661;28;20200;-91
2022/02/20 08:22:22;;;;;;;1.10;1.00;;;6.20;99.90;;;;;;5091041;28;20452;-91
2022/02/20 08:24:50;;;;;;;2.55;1.00;;;6.20;99.90;;;;;;5090213;28;20220;-89
2022/02/20 08:27:17;;;;;;;3.00;0.80;;;6.20;99.90;;;;;;5092761;28;20214;-91
2022/02/20 08:29:44;;;;;;;2.45;1.20;;;6.20;99.90;;;;;;5090345;28;20207;-89
2022/02/20 08:32:10;;;;;;;1.27;1.10;;;6.20;99.90;;;;;;5092484;28;20385;-89
2022/02/20 08:34:37;;;;;;;1.85;1.60;;;6.20;99.90;;;;;;5091575;28;20226;-89
2022/02/20 08:37:05;;;;;;;1.90;1.10;;;6.30;99.90;;;;;;5092701;28;20200;-89
2022/02/20 08:39:34;;;;;;;2.03;1.33;;;6.60;99.90;;;;;;5094709;28;20195;-89
2022/02/20 08:42:03;;;;;;;1.90;1.10;;;7.30;99.90;;;;;;5095561;28;20594;-88
2022/02/20 08:44:33;;;;;;;1.88;1.00;;;8.20;99.90;;;;;;5094902;28;20585;-90
2022/02/20 08:47:00;;;;;;;4.35;1.25;;;9.10;99.90;;;;;;5095566;28;20207;-90
2022/02/20 08:49:27;;;;;;;2.35;1.33;;;9.20;99.90;;;;;;5094043;28;20203;-89
2022/02/20 08:51:54;;;;;;;2.53;1.02;;;9.10;99.90;;;;;;5094101;28;20203;-91
2022/02/20 08:54:21;;;;;;;1.30;0.80;;;9.10;99.90;;;;;;5094081;28;20236;-92
2022/02/20 08:56:47;;;;;;;1.10;0.90;;;9.00;99.90;;;;;;5095514;28;20695;-89
2022/02/20 08:59:15;;;;;;;2.33;1.00;;;9.20;99.90;;;;;;5095058;28;20225;-91
2022/02/20 09:01:42;;;;;;;3.67;1.00;;;9.00;99.90;;;;;;5096272;28;20203;-90
2022/02/20 09:04:12;;;;;;;2.85;1.00;;;8.90;99.90;;;;;;5094985;28;20231;-91
2022/02/20 09:06:39;;;;;;;1.37;1.10;;;8.80;99.90;;;;;;5058440;28;1068777;-91
2022/02/20 09:09:06;;;;;;;1.20;0.98;;;8.80;99.90;;;;;;5097353;28;20204;-90
2022/02/20 09:11:33;;;;;;;1.00;0.90;;;9.00;99.90;;;;;;5096867;28;20664;-90
2022/02/20 09:14:00;;;;;;;2.47;1.10;;;8.80;99.90;;;;;;5097073;28;20223;-90
2022/02/20 09:16:28;;;;;;;3.60;1.00;;;8.40;99.90;;;;;;5095510;28;20196;-91
2022/02/20 09:18:56;;;;;;;1.45;0.98;;;8.00;99.90;;;;;;5096551;28;20226;-90
2022/02/20 09:21:23;;;;;;;1.10;1.00;;;7.50;99.90;;;;;;5091882;28;20210;-90
2022/02/20 09:23:50;;;;;;;2.45;1.05;;;7.30;99.90;;;;;;5075263;28;20232;-90
2022/02/20 09:26:17;;;;;;;1.10;0.80;;;7.30;99.90;;;;;;5075874;28;20204;-91
2022/02/20 09:28:44;;;;;;;1.40;1.10;;;7.20;99.90;;;;;;5074381;28;20204;-90
2022/02/20 09:31:10;;;;;;;1.88;1.00;;;7.10;99.90;;;;;;5076303;28;20201;-90
2022/02/20 09:33:39;;;;;;;1.00;0.90;;;7.10;99.90;;;;;;5083222;28;20217;-92
2022/02/20 09:36:07;;;;;;;3.55;1.23;;;7.10;99.90;;;;;;5077127;28;20211;-91
2022/02/20 09:38:35;;;;;;;1.60;0.80;;;7.20;99.90;;;;;;5080096;28;20204;-91
2022/02/20 09:41:02;;;;;;;1.40;1.00;;;7.20;99.90;;;;;;5084784;28;20200;-91
2022/02/20 09:43:29;;;;;;;1.33;0.80;;;7.30;99.90;;;;;;5090814;28;20221;-91
2022/02/20 09:45:56;;;;;;;1.13;0.90;;;7.40;99.90;;;;;;5087575;28;20205;-91
2022/02/20 09:48:24;;;;;;;0.98;0.80;;;7.60;99.90;;;;;;5089104;28;20200;-89
2022/02/20 09:50:53;;;;;;;1.58;1.13;;;7.60;99.90;;;;;;5088518;28;20223;-91
2022/02/20 09:53:20;;;;;;;2.47;0.93;;;7.50;99.90;;;;;;5085325;28;20228;-91
2022/02/20 09:55:48;;;;;;;1.63;0.90;;;7.50;99.90;;;;;;5085667;28;20492;-90
2022/02/20 09:58:17;;;;;;;1.58;0.90;;;7.70;99.90;;;;;;5085437;28;20210;-90
2022/02/20 10:00:54;;;;;;;1.42;1.00;;;7.90;99.90;;;;;;5085167;28;20197;-90
2022/02/20 10:03:30;;;;;;;0.90;0.80;;;8.00;99.90;;;;;;5096548;28;20228;-90
2022/02/20 10:05:58;;;;;;;1.15;0.80;;;8.10;99.90;;;;;;5090685;28;20218;-91
2022/02/20 10:08:25;;;;;;;2.10;0.90;;;8.10;99.90;;;;;;5088128;28;20664;-91
2022/02/20 10:10:52;;;;;;;1.63;0.80;;;8.00;99.90;;;;;;5092617;28;20188;-91
2022/02/20 10:13:26;;;;;;;1.65;0.80;;;8.00;99.90;;;;;;5090640;28;20238;-89
2022/02/20 10:15:54;;;;;;;4.63;1.30;;;7.90;99.90;;;;;;5078636;28;20513;-91
2022/02/20 10:18:22;;;;;;;1.80;0.90;;;8.10;99.90;;;;;;5076682;28;20227;-91
2022/02/20 10:20:59;;;;;;;1.40;0.80;;;8.20;99.90;;;;;;5074771;28;20208;-89
2022/02/20 10:23:37;;;;;;;1.70;0.90;;;8.40;99.90;;;;;;5074568;28;20282;-90
2022/02/20 10:26:12;;;;;;;1.15;1.00;;;8.60;99.90;;;;;;5073812;28;20200;-90
2022/02/20 10:29:02;;;;;;;1.85;1.10;;;8.60;99.90;;;;;;5074034;28;20255;-89
2022/02/20 10:31:43;;;;;;;1.10;0.80;;;8.40;99.90;;;;;;5073977;28;20291;-91
2022/02/20 10:34:12;;;;;;;2.85;0.90;;;8.30;99.90;;;;;;5073792;28;20220;-91
2022/02/20 10:36:46;;;;;;;1.00;0.80;;;8.30;99.90;;;;;;5073892;28;20204;-90
2022/02/20 10:42:42;;;;;;;1.67;1.00;;;8.50;99.90;;;;;;5072295;28;20210;-89
2022/02/20 10:45:22;;;;;;;1.20;0.82;;;8.30;99.90;;;;;;5078779;28;20306;-90
2022/02/20 10:47:48;;;;;;;1.80;0.90;;;8.60;99.90;;;;;;5081521;28;20584;-91
2022/02/20 10:50:17;;;;;;;1.25;1.02;;;8.90;99.90;;;;;;5078497;28;20212;-91
2022/02/20 10:52:44;;;;;;;0.90;0.80;;;9.10;99.90;;;;;;5073692;28;20227;-90
2022/02/20 10:55:14;;;;;;;1.55;0.93;;;9.10;99.90;;;;;;5072726;28;20228;-90
2022/02/20 10:57:44;;;;;;;1.00;0.70;;;9.30;99.90;;;;;;5074498;28;20680;-90
2022/02/20 11:00:13;;;;;;;0.98;0.80;;;9.60;99.90;;;;;;5074789;28;20227;-89
2022/02/20 11:02:40;;;;;;;1.45;0.70;;;9.70;99.90;;;;;;5071932;28;20224;-90
2022/02/20 11:05:08;;;;;;;2.13;1.05;;;9.80;99.90;;;;;;5073036;28;20220;-91
2022/02/20 11:07:37;;;;;;;1.45;1.05;;;9.80;99.90;;;;;;5073151;28;20208;-91
2022/02/20 11:10:05;;;;;;;0.80;0.70;;;9.70;99.90;;;;;;5072612;28;20632;-89
2022/02/20 11:12:35;;;;;;;0.80;0.70;;;9.50;99.90;;;;;;5072070;28;20287;-89
2022/02/20 11:15:03;;;;;;;0.95;0.80;;;9.40;99.90;;;;;;5071896;28;20323;-90
2022/02/20 11:17:31;;;;;;;1.55;0.70;;;9.50;99.90;;;;;;5072215;28;20211;-89
2022/02/20 11:20:00;;;;;;;1.48;0.88;;;9.50;99.90;;;;;;5070847;28;20208;-91
2022/02/20 11:22:30;;;;;;;1.50;0.70;;;9.50;99.90;;;;;;5071841;28;20212;-88
2022/02/20 11:24:58;;;;;;;1.88;0.90;;;9.40;99.90;;;;;;5073480;28;20220;-92
2022/02/20 11:27:26;;;;;;;1.00;0.85;;;9.50;99.90;;;;;;5072395;28;20208;-88
2022/02/20 11:29:54;;;;;;;0.90;0.70;;;9.70;99.90;;;;;;5072273;28;20254;-91
2022/02/20 11:32:22;;;;;;;1.33;1.02;;;9.70;99.90;;;;;;5072697;28;20204;-91
2022/02/20 11:34:50;;;;;;;1.73;0.90;;;9.50;99.90;;;;;;5073717;28;20616;-91
2022/02/20 11:37:17;;;;;;;1.10;0.85;;;9.30;99.90;;;;;;5074092;28;20668;-93
2022/02/20 11:40:00;;;;;;;0.90;0.80;;;9.20;99.90;;;;;;5074865;28;20687;-92
2022/02/20 11:42:27;;;;;;;2.38;1.10;;;9.00;99.90;;;;;;5075403;28;20204;-89
2022/02/20 11:45:02;;;;;;;1.00;0.80;;;9.00;99.90;;;;;;5083201;28;20216;-92
2022/02/20 11:47:41;;;;;;;0.80;0.70;;;8.90;99.90;;;;;;5078894;28;20200;-92
2022/02/20 11:50:39;;;;;;;1.00;0.80;;;9.00;99.90;;;;;;5074824;28;20572;-92
2022/02/20 11:53:08;;;;;;;1.20;1.10;;;8.90;99.90;;;;;;5073589;28;20302;-90
2022/02/20 11:55:37;;;;;;;1.55;0.80;;;9.00;99.90;;;;;;5072347;28;20702;-91
2022/02/20 11:58:23;;;;;;;1.00;0.77;;;8.90;99.90;;;;;;5072912;28;20203;-91
2022/02/20 12:01:08;;;;;;;1.35;1.17;;;8.80;99.90;;;;;;5073108;28;20200;-91
2022/02/20 12:04:01;;;;;;;1.80;1.10;;;8.70;99.90;;;;;;5072153;28;20707;-92
2022/02/20 12:06:29;;;;;;;1.85;1.00;;;8.70;99.90;;;;;;5052687;28;20232;-93
2022/02/20 12:08:58;;;;;;;1.50;1.20;;;8.60;99.90;;;;;;5057361;28;20673;-92
2022/02/20 12:11:26;;;;;;;2.30;0.90;;;8.60;99.90;;;;;;5070286;28;20486;-91
2022/02/20 12:13:54;;;;;;;4.90;0.98;;;8.70;99.90;;;;;;5075916;28;20231;-92
2022/02/20 12:16:28;;;;;;;0.98;0.88;;;8.70;99.90;;;;;;5081789;28;20228;-92
2022/02/20 12:19:25;;;;;;;2.97;1.13;;;8.60;99.90;;;;;;5079438;28;20211;-90
2022/02/20 12:24:55;;;;;;;1.45;0.95;;;8.60;99.90;;;;;;5077332;28;20224;-89
2022/02/20 12:27:24;;;;;;;0.90;0.80;;;8.60;99.90;;;;;;5077639;28;20196;-91
2022/02/20 12:29:53;;;;;;;1.10;0.90;;;8.60;99.90;;;;;;5077933;28;20212;-91
2022/02/20 12:32:24;;;;;;;1.15;1.00;;;8.50;99.90;;;;;;5083207;28;20208;-91
2022/02/20 12:35:03;;;;;;;1.08;0.80;;;8.50;99.90;;;;;;5077590;28;20254;-89
2022/02/20 12:37:33;;;;;;;1.83;1.00;;;8.60;99.90;;;;;;5077287;28;20204;-90
2022/02/20 12:40:02;;;;;;;1.00;0.90;;;8.50;99.90;;;;;;5083188;28;20367;-91
2022/02/20 12:42:31;;;;;;;1.35;1.08;;;8.50;99.90;;;;;;5083128;28;20216;-91
2022/02/20 12:45:13;;;;;;;1.10;0.77;;;8.50;99.90;;;;;;5078755;28;20270;-91
2022/02/20 12:47:42;;;;;;;1.20;0.82;;;8.50;99.90;;;;;;5078132;28;20511;-90
2022/02/20 12:50:12;;;;;;;1.65;0.95;;;8.50;99.90;;;;;;5120883;22;20222;-90
2022/02/20 12:52:40;;;;;;;1.95;0.90;;;8.50;99.90;;;;;;5103766;28;20210;-90
2022/02/20 12:55:09;;;;;;;1.20;0.77;;;8.50;99.90;;;;;;5101580;28;20215;-91
2022/02/20 12:57:39;;;;;;;1.35;1.08;;;8.60;99.90;;;;;;5100179;28;20210;-90
2022/02/20 13:00:10;;;;;;;0.90;0.80;;;8.70;99.90;;;;;;5088314;28;20227;-92
2022/02/20 13:02:41;;;;;;;1.00;0.80;;;8.70;99.90;;;;;;5080018;28;20204;-91
2022/02/20 13:05:12;;;;;;;1.30;0.90;;;8.70;99.90;;;;;;5080143;28;20200;-91
2022/02/20 13:07:44;;;;;;;1.42;0.90;;;8.70;99.90;;;;;;5078323;28;20208;-91
2022/02/20 13:10:16;;;;;;;2.00;1.00;;;8.70;99.90;;;;;;5077429;28;20228;-91
2022/02/20 13:13:00;;;;;;;4.00;1.10;;;8.70;99.90;;;;;;5077584;28;20212;-91
2022/02/20 13:15:27;;;;;;;1.08;0.90;;;8.60;99.90;;;;;;5075288;28;20220;-89